Time;durP1;ratioP1;P1;durP2;ratioP2;P2;SDS_P1;SDS_P2;PMS_P1;PMS_P2;Temp;Humidity;BMP_temperature;BMP_pressure;BME280_temperature;BME280_humidity;BME280_pressure;Samples;Min_cycle;Max_cycle;Signal;HPM_P1;HPM_P2
2022/04/21 00:06:48;;;;;;;;;10.00;10.00;;;;;;;;2;261076889;261076889;-80
2022/04/21 00:16:15;;;;;;;;;7.00;7.00;;;;;;;;2;288085613;288085613;-79
2022/04/21 00:24:31;;;;;;;;;7.50;7.50;;;;;;;;2;261074304;261074304;-79
2022/04/21 00:33:58;;;;;;;;;12.50;7.50;;;;;;;;2;288082890;288082890;-79
2022/04/21 00:42:14;;;;;;;;;9.00;6.50;;;;;;;;2;261076442;261076442;-79
2022/04/21 00:51:41;;;;;;;;;14.00;7.00;;;;;;;;2;288081187;288081187;-80
2022/04/21 00:59:57;;;;;;;;;6.00;6.00;;;;;;;;2;261077123;261077123;-79
2022/04/21 01:09:24;;;;;;;;;8.00;4.00;;;;;;;;2;288087744;288087744;-79
2022/04/21 01:17:40;;;;;;;;;10.00;10.00;;;;;;;;2;261075423;261075423;-79
2022/04/21 01:27:07;;;;;;;;;4.00;4.00;;;;;;;;2;288084363;288084363;-79
2022/04/21 01:35:23;;;;;;;;;13.50;5.00;;;;;;;;2;261076287;261076287;-79
2022/04/21 01:44:50;;;;;;;;;8.00;8.00;;;;;;;;2;288082886;288082886;-79
2022/04/21 01:53:06;;;;;;;;;4.50;4.50;;;;;;;;2;261076304;261076304;-80
2022/04/21 02:02:33;;;;;;;;;4.00;2.50;;;;;;;;2;288085128;288085128;-79
2022/04/21 02:10:49;;;;;;;;;6.00;6.00;;;;;;;;2;261076780;261076780;-79
2022/04/21 02:20:17;;;;;;;;;5.00;5.00;;;;;;;;2;288084549;288084549;-79
2022/04/21 02:28:32;;;;;;;;;6.50;6.50;;;;;;;;2;261076833;261076833;-79
2022/04/21 02:38:00;;;;;;;;;8.50;8.50;;;;;;;;2;288084530;288084530;-79
2022/04/21 02:46:16;;;;;;;;;8.00;8.00;;;;;;;;2;261076649;261076649;-79
2022/04/21 03:04:17;;;;;;;;;2.50;2.50;;;;;;;;2;261075289;261075289;-79
2022/04/21 03:13:45;;;;;;;;;8.00;5.00;;;;;;;;2;288083359;288083359;-79
2022/04/21 03:31:47;;;;;;;;;5.50;5.50;;;;;;;;2;288083297;288083297;-79
2022/04/21 03:40:03;;;;;;;;;9.50;9.50;;;;;;;;2;261075786;261075786;-80
2022/04/21 03:49:31;;;;;;;;;10.00;10.00;;;;;;;;2;288085267;288085267;-80
2022/04/21 03:57:46;;;;;;;;;19.50;19.50;;;;;;;;2;261077280;261077280;-80
2022/04/21 04:15:49;;;;;;;;;6.00;6.00;;;;;;;;2;261075873;261075873;-80
2022/04/21 04:25:17;;;;;;;;;9.00;5.50;;;;;;;;2;288083810;288083810;-80
2022/04/21 04:33:33;;;;;;;;;4.50;4.50;;;;;;;;2;261075557;261075557;-80
2022/04/21 04:43:01;;;;;;;;;8.00;8.00;;;;;;;;2;288083002;288083002;-80
2022/04/21 04:51:17;;;;;;;;;7.00;7.00;;;;;;;;2;261079365;261079365;-80
2022/04/21 05:00:46;;;;;;;;;7.00;7.00;;;;;;;;2;288085113;288085113;-80
2022/04/21 05:09:02;;;;;;;;;12.00;12.00;;;;;;;;2;261076346;261076346;-80
2022/04/21 05:18:30;;;;;;;;;11.00;7.50;;;;;;;;2;288086011;288086011;-79
2022/04/21 05:26:46;;;;;;;;;17.00;17.00;;;;;;;;2;261075452;261075452;-79
2022/04/21 05:36:14;;;;;;;;;6.00;6.00;;;;;;;;2;288082110;288082110;-79
2022/04/21 05:44:29;;;;;;;;;6.50;6.50;;;;;;;;2;261076389;261076389;-79
2022/04/21 05:53:58;;;;;;;;;4.00;4.00;;;;;;;;2;288084537;288084537;-80
2022/04/21 06:02:13;;;;;;;;;7.00;7.00;;;;;;;;2;261075601;261075601;-84
2022/04/21 06:11:43;;;;;;;;;8.00;8.00;;;;;;;;2;288086225;288086225;-80
2022/04/21 06:19:58;;;;;;;;;13.50;10.50;;;;;;;;2;261076420;261076420;-80
2022/04/21 06:29:26;;;;;;;;;2.50;2.50;;;;;;;;2;288085020;288085020;-81
2022/04/21 06:37:42;;;;;;;;;12.00;12.00;;;;;;;;2;261074795;261074795;-81
2022/04/21 06:55:43;;;;;;;;;14.50;10.50;;;;;;;;2;261076053;261076053;-81
2022/04/21 07:05:12;;;;;;;;;16.00;11.00;;;;;;;;2;288084607;288084607;-79
2022/04/21 07:13:28;;;;;;;;;9.00;9.00;;;;;;;;2;261076211;261076211;-81
2022/04/21 07:22:55;;;;;;;;;11.50;11.50;;;;;;;;2;288083408;288083408;-80
2022/04/21 07:31:11;;;;;;;;;13.50;13.50;;;;;;;;2;261076525;261076525;-80
2022/04/21 07:40:38;;;;;;;;;13.00;13.00;;;;;;;;2;288082254;288082254;-79
2022/04/21 07:58:40;;;;;;;;;16.00;16.00;;;;;;;;2;288084161;288084161;-80
2022/04/21 08:07:00;;;;;;;;;23.00;6.50;;;;;;;;2;261079269;261079269;-80
2022/04/21 08:16:29;;;;;;;;;9.50;9.50;;;;;;;;2;288083669;288083669;-80
2022/04/21 08:41:03;;;;;;;;;4.00;4.00;;;;;;;;2;288083791;288083791;-79
2022/04/21 08:49:21;;;;;;;;;10.00;10.00;;;;;;;;2;261078428;261078428;-80
2022/04/21 08:58:48;;;;;;;;;11.50;11.50;;;;;;;;2;288083151;288083151;-79
2022/04/21 09:07:20;;;;;;;;;15.50;15.50;;;;;;;;2;261075582;261075582;-80
2022/04/21 09:16:48;;;;;;;;;13.50;13.50;;;;;;;;2;288085655;288085655;-80
2022/04/21 09:25:04;;;;;;;;;7.00;7.00;;;;;;;;2;261081939;261081939;-76
2022/04/21 09:34:33;;;;;;;;;15.50;15.50;;;;;;;;2;288083244;288083244;-80
2022/04/21 09:42:59;;;;;;;;;14.00;14.00;;;;;;;;2;261078747;261078747;-80
2022/04/21 09:52:31;;;;;;;;;23.00;15.00;;;;;;;;2;288084676;288084676;-81
2022/04/21 10:00:47;;;;;;;;;13.50;13.50;;;;;;;;2;261077732;261077732;-80
2022/04/21 10:10:14;;;;;;;;;15.50;10.00;;;;;;;;2;288086353;288086353;-82
2022/04/21 10:18:30;;;;;;;;;10.50;10.50;;;;;;;;2;261076156;261076156;-79
2022/04/21 10:27:57;;;;;;;;;15.00;15.00;;;;;;;;2;288082572;288082572;-80
2022/04/21 10:36:31;;;;;;;;;8.00;8.00;;;;;;;;2;261081285;261081285;-80
2022/04/21 10:46:05;;;;;;;;;13.50;13.50;;;;;;;;2;288081839;288081839;-79
2022/04/21 11:04:08;;;;;;;;;12.00;12.00;;;;;;;;2;288084348;288084348;-79
2022/04/21 11:12:55;;;;;;;;;9.00;9.00;;;;;;;;2;261079078;261079078;-79
2022/04/21 11:22:37;;;;;;;;;19.50;19.50;;;;;;;;2;288083228;288083228;-79
2022/04/21 11:30:57;;;;;;;;;13.00;13.00;;;;;;;;2;261075299;261075299;-79
2022/04/21 11:40:25;;;;;;;;;13.50;13.50;;;;;;;;2;288082443;288082443;-80
2022/04/21 11:48:41;;;;;;;;;20.50;20.50;;;;;;;;2;261077387;261077387;-81
2022/04/21 11:58:09;;;;;;;;;16.50;16.50;;;;;;;;2;288086252;288086252;-81
2022/04/21 12:06:28;;;;;;;;;20.00;18.00;;;;;;;;2;261078729;261078729;-81
2022/04/21 12:15:55;;;;;;;;;28.00;27.50;;;;;;;;2;288086977;288086977;-78
2022/04/21 12:24:12;;;;;;;;;17.00;17.00;;;;;;;;2;261075338;261075338;-77
2022/04/21 12:33:42;;;;;;;;;27.50;26.00;;;;;;;;2;288083857;288083857;-77
2022/04/21 12:41:58;;;;;;;;;20.00;20.00;;;;;;;;2;261076221;261076221;-78
2022/04/21 12:51:26;;;;;;;;;19.00;19.00;;;;;;;;2;288084552;288084552;-78
2022/04/21 12:59:42;;;;;;;;;25.00;25.00;;;;;;;;2;261079720;261079720;-80
2022/04/21 13:09:10;;;;;;;;;31.50;23.00;;;;;;;;2;288087577;288087577;-80
2022/04/21 13:17:25;;;;;;;;;12.50;12.50;;;;;;;;2;261077711;261077711;-80
2022/04/21 13:26:53;;;;;;;;;23.00;17.50;;;;;;;;2;288084526;288084526;-79
2022/04/21 13:35:09;;;;;;;;;20.00;20.00;;;;;;;;2;261076410;261076410;-80
2022/04/21 13:44:36;;;;;;;;;18.00;16.50;;;;;;;;2;288082726;288082726;-80
2022/04/21 13:52:53;;;;;;;;;21.00;16.00;;;;;;;;2;261077035;261077035;-79
2022/04/21 14:02:20;;;;;;;;;17.00;17.00;;;;;;;;2;288085036;288085036;-81
2022/04/21 14:10:36;;;;;;;;;23.50;23.50;;;;;;;;2;261079474;261079474;-79
2022/04/21 14:20:06;;;;;;;;;17.50;15.50;;;;;;;;2;288082674;288082674;-79
2022/04/21 14:28:21;;;;;;;;;13.00;13.00;;;;;;;;2;261077122;261077122;-80
2022/04/21 14:46:23;;;;;;;;;15.50;15.50;;;;;;;;2;261075584;261075584;-79
2022/04/21 14:55:52;;;;;;;;;15.50;15.50;;;;;;;;2;288088270;288088270;-80
2022/04/21 15:04:08;;;;;;;;;10.00;10.00;;;;;;;;2;261078398;261078398;-79
2022/04/21 15:13:35;;;;;;;;;16.50;16.50;;;;;;;;2;288084325;288084325;-79
2022/04/21 15:21:51;;;;;;;;;17.00;12.00;;;;;;;;2;261077176;261077176;-80
2022/04/21 15:31:21;;;;;;;;;11.00;11.00;;;;;;;;2;288086339;288086339;-80
2022/04/21 15:39:36;;;;;;;;;7.00;7.00;;;;;;;;2;261078014;261078014;-80
2022/04/21 15:49:05;;;;;;;;;6.50;6.50;;;;;;;;2;288084953;288084953;-79
2022/04/21 16:07:07;;;;;;;;;5.00;5.00;;;;;;;;2;288086933;288086933;-79
2022/04/21 16:15:22;;;;;;;;;13.00;4.00;;;;;;;;2;261079384;261079384;-79
2022/04/21 16:24:50;;;;;;;;;4.00;4.00;;;;;;;;2;288083034;288083034;-79
2022/04/21 16:33:06;;;;;;;;;4.00;4.00;;;;;;;;2;261074558;261074558;-79
2022/04/21 16:42:36;;;;;;;;;5.50;5.50;;;;;;;;2;288084848;288084848;-79
2022/04/21 16:50:51;;;;;;;;;4.50;4.50;;;;;;;;2;261079214;261079214;-79
2022/04/21 17:02:54;;;;;;;;;4.00;4.00;;;;;;;;2;288084106;288084106;-80
2022/04/21 17:08:55;;;;;;;;;4.00;4.00;;;;;;;;2;261074583;261074583;-79
2022/04/21 17:18:22;;;;;;;;;4.50;4.50;;;;;;;;2;288085738;288085738;-81
2022/04/21 17:26:38;;;;;;;;;4.00;4.00;;;;;;;;2;261076201;261076201;-81
2022/04/21 17:36:05;;;;;;;;;2.00;2.00;;;;;;;;2;288084324;288084324;-81
2022/04/21 17:44:21;;;;;;;;;6.50;6.50;;;;;;;;2;261079727;261079727;-81
2022/04/21 17:53:49;;;;;;;;;3.50;3.50;;;;;;;;2;288089390;288089390;-82
2022/04/21 18:02:05;;;;;;;;;4.50;4.50;;;;;;;;2;261076998;261076998;-79
2022/04/21 18:11:32;;;;;;;;;7.50;7.50;;;;;;;;2;288084750;288084750;-78
2022/04/21 18:19:48;;;;;;;;;5.00;5.00;;;;;;;;2;261078264;261078264;-81
2022/04/21 18:29:16;;;;;;;;;2.50;2.50;;;;;;;;2;288087044;288087044;-80
2022/04/21 18:37:31;;;;;;;;;5.00;5.00;;;;;;;;2;261075236;261075236;-83
2022/04/21 18:46:59;;;;;;;;;5.50;5.50;;;;;;;;2;288083550;288083550;-82
2022/04/21 18:55:14;;;;;;;;;2.00;2.00;;;;;;;;2;261075886;261075886;-80
2022/04/21 19:04:42;;;;;;;;;3.00;3.00;;;;;;;;2;288086027;288086027;-81
2022/04/21 19:12:57;;;;;;;;;7.00;7.00;;;;;;;;2;261075005;261075005;-79
2022/04/21 19:22:25;;;;;;;;;6.00;6.00;;;;;;;;2;288083362;288083362;-84
2022/04/21 19:30:42;;;;;;;;;3.50;3.50;;;;;;;;2;261074392;261074392;-83
2022/04/21 19:40:10;;;;;;;;;5.00;5.00;;;;;;;;2;288084983;288084983;-83
2022/04/21 19:48:25;;;;;;;;;9.50;9.50;;;;;;;;2;261076613;261076613;-84
2022/04/21 19:57:53;;;;;;;;;10.00;10.00;;;;;;;;2;288083505;288083505;-84
2022/04/21 20:15:55;;;;;;;;;12.50;12.50;;;;;;;;2;288084541;288084541;-85
2022/04/21 20:26:35;;;;;;;;;8.00;8.00;;;;;;;;2;261077289;261077289;-84
2022/04/21 20:33:57;;;;;;;;;5.00;5.00;;;;;;;;2;288087643;288087643;-84
2022/04/21 20:42:13;;;;;;;;;6.00;6.00;;;;;;;;2;261077210;261077210;-83
2022/04/21 20:51:41;;;;;;;;;19.00;7.00;;;;;;;;2;288085251;288085251;-82
2022/04/21 20:59:56;;;;;;;;;7.00;7.00;;;;;;;;2;261076012;261076012;-84
2022/04/21 21:09:24;;;;;;;;;3.50;3.50;;;;;;;;2;288083432;288083432;-83
2022/04/21 21:17:40;;;;;;;;;4.50;4.50;;;;;;;;2;261077275;261077275;-82
2022/04/21 21:27:08;;;;;;;;;6.00;6.00;;;;;;;;2;288083095;288083095;-83
2022/04/21 21:35:24;;;;;;;;;7.00;3.50;;;;;;;;2;261078224;261078224;-82
2022/04/21 21:44:51;;;;;;;;;5.50;5.50;;;;;;;;2;288087276;288087276;-82
2022/04/21 21:53:08;;;;;;;;;8.50;8.50;;;;;;;;2;261079445;261079445;-81
2022/04/21 22:02:37;;;;;;;;;7.00;7.00;;;;;;;;2;288085967;288085967;-80
2022/04/21 22:10:53;;;;;;;;;5.50;5.50;;;;;;;;2;261079199;261079199;-82
2022/04/21 22:20:21;;;;;;;;;13.50;9.00;;;;;;;;2;288085772;288085772;-82
2022/04/21 22:28:37;;;;;;;;;9.00;9.00;;;;;;;;2;261079715;261079715;-83
2022/04/21 22:38:08;;;;;;;;;5.00;3.50;;;;;;;;2;288082833;288082833;-81
2022/04/21 22:46:24;;;;;;;;;3.50;3.50;;;;;;;;2;261074933;261074933;-82
2022/04/21 22:55:52;;;;;;;;;6.50;6.50;;;;;;;;2;288084955;288084955;-81
2022/04/21 23:04:08;;;;;;;;;11.50;11.50;;;;;;;;2;261074136;261074136;-81
2022/04/21 23:13:35;;;;;;;;;10.00;10.00;;;;;;;;2;288082945;288082945;-81
2022/04/21 23:21:51;;;;;;;;;2.50;2.50;;;;;;;;2;261078340;261078340;-82
2022/04/21 23:31:18;;;;;;;;;5.00;3.00;;;;;;;;2;288084241;288084241;-81
2022/04/21 23:39:34;;;;;;;;;2.50;2.50;;;;;;;;2;261076956;261076956;-81
2022/04/21 23:49:02;;;;;;;;;2.00;2.00;;;;;;;;2;288083646;288083646;-82
2022/04/21 23:57:17;;;;;;;;;2.50;2.50;;;;;;;;2;261079016;261079016;-81
